• Join FlightAware (Why Join?)
  • Login
  • US Flag 
06:52AM EST


 

Airport Tracker/Info


-or-


 

Live Flight TrackerFlight Track Log ✈ UAL4431 ✈ 13-Apr-2013 ✈ KIAH - KTUL

Flight Track Log - Related Links

Times and Time Zones

All times are in EDT time to prevent confusion due to time zone crossing. See the UAL4431 flight status page for this flight to view local times or setup timezone preferences in your user account.

Time Position Orientation Groundspeed Altitude Reporting Facility
EDT Latitude Longitude Course Direction KTS MPH feet Rate Location/Type
12:30PM 29.9772 -95.3078 337° Northwest 145 167 600  Level Houston Center
12:31PM 30.0558 -95.2936 North 273 314 3,400 2,100 Climbing Houston Center
12:32PM 30.1008 -95.3156 337° Northwest 270 311 5,300 2,880 Climbing Houston Center
12:32PM 30.1292 -95.3378 326° Northwest 288 331 6,400 3,000 Climbing Houston Center
12:33PM 30.3671 -95.5595 334° Northwest  Level FlightAware Approximate
12:33PM 30.1681 -95.3683 326° Northwest 292 336 8,400  Level Houston Center
12:33PM 30.1900 -95.3836 329° Northwest 286 329 9,200 1,980 Climbing Houston Center
12:34PM 30.4642 -95.6134 334° Northwest  Level FlightAware Approximate
12:34PM 30.2339 -95.4178 326° Northwest 284 327 10,500  Level Houston Center
12:35PM 30.5625 -95.6645 337° Northwest  Level FlightAware Approximate
12:35PM 30.3108 -95.4781 326° Northwest 325 374 11,600  Level Houston Center
12:36PM 30.3936 -95.5428 326° Northwest 353 406 13,100 1,800 Climbing Houston Center
12:37PM 30.4950 -95.6200 327° Northwest 363 418 15,400 1,800 Climbing Houston Center
12:38PM 30.5833 -95.6789 330° Northwest 366 421 16,900 1,380 Climbing Houston Center
12:39PM 30.6794 -95.7278 336° Northwest 375 432 18,300 1,380 Climbing Houston Center
12:40PM 30.7725 -95.7789 335° Northwest 374 430 19,800 1,500 Climbing Houston Center
12:41PM 30.8692 -95.8297 336° Northwest 377 434 21,400 1,620 Climbing Houston Center
12:42PM 30.9875 -95.8950 335° Northwest 386 444 23,200 1,560 Climbing Houston Center
12:43PM 31.0892 -95.9481 336° Northwest 394 453 24,700 1,260 Climbing Houston Center
12:44PM 31.1572 -95.9739 342° North 391 450 25,500 1,140 Climbing Fort Worth Center
12:45PM 31.2700 -96.0014 348° North 397 457 26,700 1,200 Climbing Fort Worth Center
12:46PM 31.3811 -96.0286 348° North 403 464 27,900 1,200 Climbing Fort Worth Center
12:47PM 31.4961 -96.0467 352° North 415 478 29,200 1,200 Climbing Fort Worth Center
12:48PM 31.6131 -96.0569 356° North 420 483 30,400 1,200 Climbing Fort Worth Center
12:49PM 31.7322 -96.0675 356° North 425 489 31,700 1,200 Climbing Fort Worth Center
12:50PM 31.8619 -96.0803 355° North 419 482 32,900 600 Climbing Fort Worth Center
12:51PM 31.9850 -96.0908 356° North 437 503 33,000  Climbing Fort Worth Center
12:52PM 32.1167 -96.1036 355° North 453 521 33,000  Level Fort Worth Center
12:53PM 32.2506 -96.1164 355° North 474 545 33,000  Level Fort Worth Center
12:54PM 32.3842 -96.1267 356° North 474 545 33,000  Level Fort Worth Center
12:55PM 32.5158 -96.1397 355° North 474 545 33,000  Level Fort Worth Center
12:56PM 32.6456 -96.1503 356° North 473 544 33,000  Level Fort Worth Center
12:57PM 32.7728 -96.1633 355° North 468 539 33,000  Level Fort Worth Center
12:58PM 32.9025 -96.1739 356° North 463 533 33,000  Level Fort Worth Center
12:59PM 33.0319 -96.1869 355° North 463 533 33,000  Level Fort Worth Center
01:00PM 33.1636 -96.1975 356° North 469 540 33,000  Level Fort Worth Center
01:01PM 33.2911 -96.2106 355° North 462 532 33,000  Level Fort Worth Center
01:02PM 33.4247 -96.2211 356° North 468 539 33,000  Level Fort Worth Center
01:03PM 33.5397 -96.2322 355° North 468 539 33,000  Level Fort Worth Center
01:04PM 33.6750 -96.2128 North 468 539 33,000  Level Fort Worth Center
01:05PM 33.8044 -96.1911 North 482 555 33,000  Level Fort Worth Center
01:06PM 33.9356 -96.1667 North 477 549 33,000  Level Fort Worth Center
01:07PM 34.0689 -96.1472 North 482 555 33,000  Level Fort Worth Center
01:08PM 34.2086 -96.1253 North 461 531 33,000  Level Fort Worth Center
01:09PM 34.3397 -96.1056 North 461 531 33,000  Level Fort Worth Center
01:10PM 34.4689 -96.0811 North 466 536 33,000 -660 Level Fort Worth Center
01:11PM 34.5981 -96.0614 North 461 531 31,700 -1,680 Descending Fort Worth Center
01:12PM 34.7231 -96.0392 North 461 531 29,700 600 Descending Fort Worth Center
01:13PM 34.8500 -96.0194 North 456 525 33,000 -2,400 Climbing Fort Worth Center
01:14PM 34.9769 -95.9969 North 456 525 24,900 -5,580 Descending Fort Worth Center
01:15PM 35.0978 -95.9797 North 456 525 21,900 -3,000 Descending Fort Worth Center
01:16PM 35.1983 -96.0339 336° Northwest 404 465 18,900 -2,760 Descending Fort Worth Center
01:18PM 35.4108 -96.1272 340° North 358 412 12,500 -2,460 Descending Kansas City Center
01:19PM 35.5058 -96.0950 15° North 356 410 10,500 -1,440 Descending Kansas City Center
01:20PM 35.5925 -96.0822 North 321 369 9,600 -1,020 Descending Kansas City Center
01:21PM 35.6619 -96.0789 North 287 330 8,800 -1,140 Descending Kansas City Center
01:21PM 35.6886 -96.0733 10° North 293 337 8,400 -1,140 Descending Kansas City Center
01:22PM 35.7431 -96.0711 North 293 337 7,700 -900 Descending Kansas City Center
01:22PM 35.7572 -96.0681 10° North 293 337 7,500 -900 Descending Kansas City Center
01:23PM 35.8283 -96.0631 North 282 325 6,700 -1,140 Descending Kansas City Center
01:23PM 35.8525 -96.0592 North 287 330 6,400 -1,140 Descending Kansas City Center
01:24PM 35.9097 -96.0578 North 291 335 5,600 -1,080 Descending Kansas City Center
01:24PM 35.9336 -96.0528 10° North 289 333 5,300 -660 Descending Kansas City Center
01:25PM 35.9825 -96.0511 North 287 330 5,000 -420 Descending Kansas City Center
01:26PM 36.0136 -96.0458 North 288 331 4,900 -120 Descending Kansas City Center
01:26PM 36.0594 -96.0439 North 271 312 4,900 -300 Level Kansas City Center
01:27PM 36.0881 -96.0394 North 276 318 4,600 -1,080 Descending Kansas City Center
01:27PM 36.1386 -96.0361 North 239 275 3,800 -1,080 Descending Kansas City Center
01:28PM 36.1556 -96.0333 North 253 291 3,500 -1,080 Descending Kansas City Center
01:28PM 36.1853 -96.0172 24° Northeast 205 236 2,800 -1,260 Descending Kansas City Center